createdAt,value
2022-12-25T00:01:33.281Z,7.20
2022-12-25T00:04:00.865Z,7.16
2022-12-25T00:06:28.782Z,7.13
2022-12-25T00:08:56.286Z,7.09
2022-12-25T00:11:23.554Z,7.06
2022-12-25T00:13:51.396Z,6.98
2022-12-25T00:16:23.854Z,6.97
2022-12-25T00:18:52.302Z,6.94
2022-12-25T00:21:20.776Z,6.92
2022-12-25T00:23:49.053Z,6.92
2022-12-25T00:26:17.880Z,6.90
2022-12-25T00:28:45.589Z,6.88
2022-12-25T00:31:15.873Z,6.91
2022-12-25T00:33:44.901Z,6.91
2022-12-25T00:36:14.398Z,6.96
2022-12-25T00:38:42.802Z,7.04
2022-12-25T00:41:12.889Z,7.07
2022-12-25T00:43:42.322Z,7.07
2022-12-25T00:46:11.145Z,7.07
2022-12-25T00:48:39.205Z,7.06
2022-12-25T00:51:08.737Z,7.08
2022-12-25T00:53:36.399Z,7.06
2022-12-25T00:56:05.904Z,7.08
2022-12-25T00:58:34.621Z,7.10
2022-12-25T01:01:03.400Z,7.11
2022-12-25T01:03:31.064Z,7.14
2022-12-25T01:06:01.790Z,7.18
2022-12-25T01:08:33.659Z,7.23
2022-12-25T01:11:09.302Z,7.27
2022-12-25T01:13:37.584Z,7.32
2022-12-25T01:16:12.468Z,7.40
2022-12-25T01:18:40.343Z,7.39
2022-12-25T01:21:11.610Z,7.41
2022-12-25T01:23:39.853Z,7.45
2022-12-25T01:26:09.197Z,7.45
2022-12-25T01:28:37.461Z,7.43
2022-12-25T01:31:05.610Z,7.40
2022-12-25T01:33:33.321Z,7.40
2022-12-25T01:36:00.842Z,7.37
2022-12-25T01:38:28.590Z,7.35
2022-12-25T01:40:56.415Z,7.32
2022-12-25T01:43:26.520Z,7.30
2022-12-25T01:45:54.599Z,7.26
2022-12-25T01:48:25.600Z,7.22
2022-12-25T01:50:59.052Z,7.17
2022-12-25T01:53:26.860Z,7.16
2022-12-25T01:55:58.598Z,7.14
2022-12-25T01:58:26.597Z,7.09
2022-12-25T02:00:54.552Z,7.08
2022-12-25T02:03:22.970Z,7.04
2022-12-25T02:05:51.628Z,7.01
2022-12-25T02:08:20.548Z,6.98
2022-12-25T02:10:48.231Z,6.97
2022-12-25T02:13:18.090Z,6.97
2022-12-25T02:15:57.249Z,6.97
2022-12-25T02:18:44.534Z,6.94
2022-12-25T02:21:59.304Z,6.92
2022-12-25T02:25:23.732Z,6.86
2022-12-25T02:28:01.837Z,6.89
2022-12-25T02:30:32.508Z,6.87
2022-12-25T02:33:22.614Z,6.89
2022-12-25T02:35:53.541Z,6.86
2022-12-25T02:38:29.888Z,6.88
2022-12-25T02:41:00.350Z,6.87
2022-12-25T02:43:52.629Z,6.86
2022-12-25T02:46:41.663Z,6.86
2022-12-25T02:49:45.994Z,6.85
2022-12-25T02:52:36.446Z,6.86
2022-12-25T02:55:29.150Z,6.86
2022-12-25T02:58:17.328Z,6.90
2022-12-25T03:01:06.655Z,6.92
2022-12-25T03:03:54.367Z,6.91
2022-12-25T03:06:41.553Z,6.95
2022-12-25T03:09:31.458Z,7.00
2022-12-25T03:12:10.911Z,7.07
2022-12-25T03:14:57.373Z,7.14
2022-12-25T03:17:24.833Z,7.21
2022-12-25T03:20:10.373Z,7.22
2022-12-25T03:22:56.802Z,7.24
2022-12-25T03:25:42.920Z,7.28
2022-12-25T03:28:10.546Z,7.26
2022-12-25T03:31:02.669Z,7.23
2022-12-25T03:33:46.701Z,7.19
2022-12-25T03:36:25.551Z,7.17
2022-12-25T03:39:23.564Z,7.12
2022-12-25T03:42:11.936Z,7.12
2022-12-25T03:45:13.128Z,7.13
2022-12-25T03:47:54.137Z,7.10
2022-12-25T03:50:45.094Z,7.02
2022-12-25T03:53:38.977Z,6.98
2022-12-25T03:56:25.398Z,6.94
2022-12-25T03:59:17.777Z,6.89
2022-12-25T04:02:07.094Z,6.89
2022-12-25T04:04:52.572Z,6.91
2022-12-25T04:07:38.570Z,6.95
2022-12-25T04:10:25.402Z,6.93
2022-12-25T04:13:11.575Z,6.90
2022-12-25T04:15:57.661Z,6.87
2022-12-25T04:18:43.662Z,6.84
2022-12-25T04:21:30.155Z,6.80
2022-12-25T04:24:16.311Z,6.75
2022-12-25T04:27:06.588Z,6.74
2022-12-25T04:29:52.590Z,6.73
2022-12-25T04:32:38.689Z,6.74
2022-12-25T04:35:25.288Z,6.75
2022-12-25T04:37:52.969Z,6.75
2022-12-25T04:40:20.689Z,6.75
2022-12-25T04:42:50.693Z,6.79
2022-12-25T04:45:18.587Z,6.75
2022-12-25T04:47:46.416Z,6.71
2022-12-25T04:50:13.675Z,6.66
2022-12-25T04:52:41.747Z,6.65
2022-12-25T04:55:10.444Z,6.61
2022-12-25T04:57:38.712Z,6.55
2022-12-25T05:00:07.071Z,6.47
2022-12-25T05:02:34.852Z,6.41
2022-12-25T05:05:02.591Z,6.34
2022-12-25T05:07:30.376Z,6.29
2022-12-25T05:09:58.626Z,6.22
2022-12-25T05:12:26.163Z,6.11
2022-12-25T05:14:53.604Z,6.06
2022-12-25T05:17:21.009Z,6.01
2022-12-25T05:19:48.389Z,5.99
2022-12-25T05:22:16.008Z,5.94
2022-12-25T05:24:43.392Z,5.93
2022-12-25T05:27:11.007Z,5.90
2022-12-25T05:29:38.601Z,5.88
2022-12-25T05:32:06.211Z,5.88
2022-12-25T05:34:33.683Z,5.83
2022-12-25T05:37:01.438Z,5.81
2022-12-25T05:39:28.693Z,5.81
2022-12-25T05:41:56.442Z,5.83
2022-12-25T05:44:23.952Z,5.82
2022-12-25T05:46:51.481Z,5.76
2022-12-25T05:49:18.726Z,5.70
2022-12-25T05:51:46.453Z,5.64
2022-12-25T05:54:14.023Z,5.54
2022-12-25T05:56:41.607Z,5.46
2022-12-25T05:59:09.050Z,5.36
2022-12-25T06:01:36.681Z,5.27
2022-12-25T06:04:10.202Z,5.18
2022-12-25T06:06:39.785Z,5.09
2022-12-25T06:09:07.188Z,5.04
2022-12-25T06:11:34.741Z,4.99
2022-12-25T06:14:02.259Z,4.94
2022-12-25T06:16:37.266Z,4.91
2022-12-25T06:19:05.619Z,4.85
2022-12-25T06:21:33.614Z,4.85
2022-12-25T06:24:02.169Z,4.81
2022-12-25T06:26:29.746Z,4.78
2022-12-25T06:28:57.345Z,4.72
2022-12-25T06:31:24.816Z,4.68
2022-12-25T06:33:52.476Z,4.55
2022-12-25T06:36:22.552Z,4.53
2022-12-25T06:38:50.473Z,4.54
2022-12-25T06:41:19.999Z,4.55
2022-12-25T06:43:52.548Z,4.49
2022-12-25T06:46:21.024Z,4.47
2022-12-25T06:48:50.022Z,4.39
2022-12-25T06:51:22.928Z,4.30
2022-12-25T06:53:51.216Z,4.25
2022-12-25T06:56:22.080Z,4.19
2022-12-25T06:58:57.476Z,4.12
2022-12-25T07:01:30.663Z,4.11
2022-12-25T07:04:01.495Z,4.11
2022-12-25T07:06:29.479Z,4.12
2022-12-25T07:08:57.065Z,4.24
2022-12-25T07:11:24.845Z,4.27
2022-12-25T07:13:52.287Z,4.31
2022-12-25T07:16:20.584Z,4.40
2022-12-25T07:18:48.218Z,4.49
2022-12-25T07:21:18.492Z,4.48
2022-12-25T07:23:47.317Z,4.49
2022-12-25T07:26:15.086Z,4.62
2022-12-25T07:28:42.787Z,4.71
2022-12-25T07:31:14.977Z,4.98
2022-12-25T07:33:43.036Z,5.31
2022-12-25T07:36:12.911Z,5.62
2022-12-25T07:38:44.245Z,5.99
2022-12-25T07:41:13.395Z,6.37
2022-12-25T07:43:41.003Z,6.80
2022-12-25T07:46:08.815Z,7.23
2022-12-25T07:48:37.076Z,7.71
2022-12-25T07:51:06.639Z,8.19
2022-12-25T07:53:35.081Z,8.70
2022-12-25T07:56:05.499Z,9.18
2022-12-25T07:58:33.331Z,9.70
2022-12-25T08:01:19.796Z,10.19
2022-12-25T08:03:54.984Z,10.73
2022-12-25T08:06:25.322Z,11.16
2022-12-25T08:08:52.959Z,11.52
2022-12-25T08:11:20.523Z,11.90
2022-12-25T08:13:48.094Z,11.80
2022-12-25T08:16:15.762Z,11.80
2022-12-25T08:18:43.758Z,11.94
2022-12-25T08:21:13.753Z,12.17
2022-12-25T08:23:43.891Z,12.37
2022-12-25T08:26:13.659Z,12.65
2022-12-25T08:28:41.111Z,12.88
2022-12-25T08:31:29.886Z,13.16
2022-12-25T08:33:58.590Z,13.44
2022-12-25T08:36:26.126Z,13.41
2022-12-25T08:39:00.451Z,13.30
2022-12-25T08:41:30.541Z,13.16
2022-12-25T08:43:58.343Z,13.15
2022-12-25T08:46:26.191Z,13.20
2022-12-25T08:48:53.760Z,13.36
2022-12-25T08:51:22.034Z,13.74
2022-12-25T08:53:50.591Z,13.99
2022-12-25T08:56:18.803Z,14.23
2022-12-25T08:58:46.692Z,14.46
2022-12-25T09:01:14.180Z,14.83
2022-12-25T09:03:42.224Z,15.01
2022-12-25T09:06:13.352Z,15.34
2022-12-25T09:08:48.008Z,15.44
2022-12-25T09:11:17.087Z,15.50
2022-12-25T09:13:44.258Z,15.70
2022-12-25T09:16:15.704Z,15.80
2022-12-25T09:18:43.388Z,15.72
2022-12-25T09:21:13.239Z,15.77
2022-12-25T09:23:40.786Z,15.63
2022-12-25T09:26:11.246Z,15.89
2022-12-25T09:28:38.797Z,15.94
2022-12-25T09:31:06.586Z,15.96
2022-12-25T09:33:34.129Z,16.03
2022-12-25T09:36:03.922Z,15.97
2022-12-25T09:38:32.134Z,15.99
2022-12-25T09:41:07.899Z,16.20
2022-12-25T09:43:41.135Z,16.29
2022-12-25T09:46:15.108Z,15.84
2022-12-25T09:48:48.939Z,15.42
2022-12-25T09:51:17.273Z,15.08
2022-12-25T09:53:52.568Z,15.59
2022-12-25T09:56:26.805Z,16.35
2022-12-25T09:58:54.808Z,16.60
2022-12-25T10:01:36.506Z,17.30
2022-12-25T10:04:14.371Z,17.87
2022-12-25T10:07:19.142Z,18.47
2022-12-25T10:10:21.569Z,19.05
2022-12-25T10:13:07.288Z,19.61
2022-12-25T10:16:12.178Z,19.97
2022-12-25T10:18:52.808Z,20.27
2022-12-25T10:21:20.762Z,20.64
2022-12-25T10:23:49.151Z,20.87
2022-12-25T10:26:19.822Z,20.76
2022-12-25T10:29:09.955Z,20.63
2022-12-25T10:31:37.598Z,20.65
2022-12-25T10:34:06.400Z,20.75
2022-12-25T10:36:34.292Z,20.71
2022-12-25T10:39:01.834Z,20.66
2022-12-25T10:42:06.078Z,20.76
2022-12-25T10:44:34.823Z,20.77
2022-12-25T10:47:03.672Z,20.32
2022-12-25T10:49:33.586Z,20.05
2022-12-25T10:52:02.915Z,19.98
2022-12-25T10:54:35.989Z,20.36
2022-12-25T10:57:04.430Z,20.81
2022-12-25T10:59:36.169Z,21.23
2022-12-25T11:02:13.178Z,21.35
2022-12-25T11:04:40.980Z,21.17
2022-12-25T11:07:15.834Z,21.27
2022-12-25T11:09:50.843Z,21.36
2022-12-25T11:12:19.177Z,21.38
2022-12-25T11:15:01.447Z,21.56
2022-12-25T11:17:28.985Z,21.47
2022-12-25T11:19:58.861Z,21.81
2022-12-25T11:22:27.570Z,22.01
2022-12-25T11:24:55.455Z,21.87
2022-12-25T11:27:30.609Z,22.38
2022-12-25T11:30:03.430Z,22.51
2022-12-25T11:32:47.079Z,22.69
2022-12-25T11:35:17.805Z,22.93
2022-12-25T11:37:51.002Z,23.30
2022-12-25T11:40:25.793Z,23.28
2022-12-25T11:43:04.103Z,23.13
2022-12-25T11:45:42.163Z,23.07
2022-12-25T11:48:16.613Z,22.89
2022-12-25T11:50:59.450Z,22.38
2022-12-25T11:53:35.172Z,22.59
2022-12-25T11:56:07.024Z,22.28
2022-12-25T11:58:50.115Z,21.82
2022-12-25T12:01:48.317Z,21.23
2022-12-25T12:04:42.386Z,21.51
2022-12-25T12:07:25.828Z,21.66
2022-12-25T12:10:38.120Z,21.77
2022-12-25T12:13:14.458Z,21.96
2022-12-25T12:15:45.634Z,21.67
2022-12-25T12:18:23.023Z,21.77
2022-12-25T12:21:01.629Z,21.57
2022-12-25T12:23:30.905Z,21.41
2022-12-25T12:25:58.465Z,21.44
2022-12-25T12:28:35.032Z,21.08
2022-12-25T12:31:05.315Z,20.97
2022-12-25T12:33:38.619Z,19.85
2022-12-25T12:36:06.733Z,18.17
2022-12-25T12:38:34.929Z,17.49
2022-12-25T12:41:05.452Z,16.65
2022-12-25T12:43:45.355Z,16.26
2022-12-25T12:46:27.907Z,16.01
2022-12-25T12:49:29.924Z,15.72
2022-12-25T12:52:21.929Z,15.52
2022-12-25T12:55:13.314Z,15.27
2022-12-25T12:57:41.693Z,15.01
2022-12-25T13:00:17.928Z,14.77
2022-12-25T13:03:14.965Z,14.69
2022-12-25T13:05:54.934Z,14.52
2022-12-25T13:08:50.142Z,14.30
2022-12-25T13:11:24.950Z,14.29
2022-12-25T13:13:54.753Z,14.23
2022-12-25T13:16:25.562Z,14.23
2022-12-25T13:18:54.500Z,15.03
2022-12-25T13:21:29.506Z,15.66
2022-12-25T13:24:01.337Z,16.29
2022-12-25T13:26:29.662Z,16.51
2022-12-25T13:28:57.664Z,16.47
2022-12-25T13:31:29.985Z,16.53
2022-12-25T13:34:03.966Z,16.30
2022-12-25T13:36:37.250Z,16.12
2022-12-25T13:39:08.177Z,15.86
2022-12-25T13:42:01.340Z,15.75
2022-12-25T13:44:31.667Z,15.39
2022-12-25T13:47:24.755Z,15.18
2022-12-25T13:49:54.958Z,14.87
2022-12-25T13:52:34.679Z,14.65
2022-12-25T13:55:13.979Z,14.53
2022-12-25T13:57:49.523Z,14.43
2022-12-25T14:00:20.788Z,14.30
2022-12-25T14:02:49.675Z,14.10
2022-12-25T14:05:29.366Z,14.00
2022-12-25T14:07:59.738Z,13.78
2022-12-25T14:10:35.263Z,13.66
2022-12-25T14:13:05.772Z,13.60
2022-12-25T14:15:33.992Z,13.55
2022-12-25T14:18:01.984Z,13.50
2022-12-25T14:20:31.987Z,13.36
2022-12-25T14:23:00.994Z,13.27
2022-12-25T14:25:42.852Z,13.07
2022-12-25T14:28:19.274Z,12.98
2022-12-25T14:30:46.944Z,12.86
2022-12-25T14:33:20.284Z,12.79
2022-12-25T14:35:48.381Z,12.66
2022-12-25T14:38:28.260Z,12.61
2022-12-25T14:41:08.006Z,12.58
2022-12-25T14:43:36.700Z,12.58
2022-12-25T14:46:08.259Z,12.49
2022-12-25T14:48:35.826Z,12.45
2022-12-25T14:51:09.950Z,12.39
2022-12-25T14:53:47.007Z,12.33
2022-12-25T14:56:20.158Z,12.27
2022-12-25T14:58:51.136Z,12.11
2022-12-25T15:01:28.089Z,12.01
2022-12-25T15:04:08.650Z,11.88
2022-12-25T15:06:37.359Z,11.72
2022-12-25T15:09:13.562Z,11.58
2022-12-25T15:11:41.406Z,11.48
2022-12-25T15:14:08.896Z,11.35
2022-12-25T15:16:47.398Z,11.21
2022-12-25T15:19:25.379Z,11.06
2022-12-25T15:21:54.770Z,10.97
2022-12-25T15:24:22.973Z,10.88
2022-12-25T15:26:50.030Z,10.78
2022-12-25T15:29:23.646Z,10.66
2022-12-25T15:32:05.157Z,10.56
2022-12-25T15:34:32.724Z,10.48
2022-12-25T15:37:00.575Z,10.46
2022-12-25T15:39:27.977Z,10.47
2022-12-25T15:42:14.612Z,10.45
2022-12-25T15:44:42.749Z,10.47
2022-12-25T15:47:14.172Z,10.48
2022-12-25T15:49:41.874Z,10.46
2022-12-25T15:52:13.309Z,10.44
2022-12-25T15:54:40.736Z,10.42
2022-12-25T15:57:18.800Z,10.35
2022-12-25T15:59:46.532Z,10.33
2022-12-25T16:02:17.182Z,10.34
2022-12-25T16:04:45.243Z,10.32
2022-12-25T16:07:21.057Z,10.32
2022-12-25T16:09:48.595Z,10.32
2022-12-25T16:12:16.429Z,10.31
2022-12-25T16:14:43.873Z,10.27
2022-12-25T16:17:16.115Z,10.27
2022-12-25T16:19:45.079Z,10.33
2022-12-25T16:22:22.048Z,10.36
2022-12-25T16:24:50.439Z,10.33
2022-12-25T16:27:18.607Z,10.31
2022-12-25T16:29:46.184Z,10.23
2022-12-25T16:32:15.074Z,10.26
2022-12-25T16:34:43.008Z,10.25
2022-12-25T16:37:10.757Z,10.24
2022-12-25T16:39:38.261Z,10.19
2022-12-25T16:42:05.865Z,10.19
2022-12-25T16:44:36.599Z,10.17
2022-12-25T16:47:04.635Z,10.19
2022-12-25T16:49:32.447Z,10.18
2022-12-25T16:52:00.091Z,10.17
2022-12-25T16:54:27.900Z,10.13
2022-12-25T16:56:55.899Z,10.12
2022-12-25T16:59:23.769Z,10.13
2022-12-25T17:01:51.948Z,10.11
2022-12-25T17:04:19.767Z,10.13
2022-12-25T17:06:49.052Z,10.15
2022-12-25T17:09:16.639Z,10.12
2022-12-25T17:11:44.436Z,10.12
2022-12-25T17:14:11.773Z,10.05
2022-12-25T17:16:40.643Z,10.01
2022-12-25T17:19:13.467Z,10.01
2022-12-25T17:21:41.113Z,10.01
2022-12-25T17:24:09.927Z,9.94
2022-12-25T17:26:37.783Z,9.94
2022-12-25T17:29:05.084Z,9.95
2022-12-25T17:31:32.836Z,9.96
2022-12-25T17:34:01.924Z,9.93
2022-12-25T17:36:30.118Z,9.90
2022-12-25T17:39:00.374Z,9.88
2022-12-25T17:41:28.466Z,9.90
2022-12-25T17:43:56.129Z,9.80
2022-12-25T17:46:25.966Z,9.78
2022-12-25T17:48:55.789Z,9.77
2022-12-25T17:51:25.387Z,9.75
2022-12-25T17:53:55.478Z,9.70
2022-12-25T17:56:24.148Z,9.67
2022-12-25T17:58:53.138Z,9.67
2022-12-25T18:01:21.568Z,9.64
2022-12-25T18:03:49.705Z,9.67
2022-12-25T18:06:19.664Z,9.70
2022-12-25T18:08:47.664Z,9.69
2022-12-25T18:11:22.664Z,9.70
2022-12-25T18:13:52.481Z,9.74
2022-12-25T18:16:22.466Z,9.76
2022-12-25T18:18:52.539Z,9.78
2022-12-25T18:21:22.214Z,9.79
2022-12-25T18:23:50.541Z,9.75
2022-12-25T18:26:19.154Z,9.75
2022-12-25T18:28:47.164Z,9.76
2022-12-25T18:31:17.535Z,9.76
2022-12-25T18:33:45.508Z,9.80
2022-12-25T18:36:14.695Z,9.77
2022-12-25T18:38:42.972Z,9.73
2022-12-25T18:41:11.508Z,9.72
2022-12-25T18:43:52.288Z,9.71
2022-12-25T18:46:26.845Z,9.67
2022-12-25T18:48:55.689Z,9.61
2022-12-25T18:51:23.577Z,9.53
2022-12-25T18:53:51.729Z,9.49
2022-12-25T18:56:19.492Z,9.40
2022-12-25T18:58:47.970Z,9.37
2022-12-25T19:01:22.831Z,9.31
2022-12-25T19:03:51.821Z,9.30
2022-12-25T19:06:20.520Z,9.26
2022-12-25T19:08:48.514Z,9.27
2022-12-25T19:11:16.502Z,9.29
2022-12-25T19:13:44.309Z,9.29
2022-12-25T19:16:12.563Z,9.28
2022-12-25T19:18:41.087Z,9.33
2022-12-25T19:21:09.676Z,9.36
2022-12-25T19:23:38.318Z,9.44
2022-12-25T19:26:07.458Z,9.50
2022-12-25T19:28:35.836Z,9.55
2022-12-25T19:31:03.796Z,9.61
2022-12-25T19:33:32.407Z,9.64
2022-12-25T19:36:03.598Z,9.71
2022-12-25T19:38:31.210Z,9.76
2022-12-25T19:41:01.527Z,9.81
2022-12-25T19:43:30.418Z,9.84
2022-12-25T19:45:58.046Z,9.87
2022-12-25T19:48:26.080Z,9.88
2022-12-25T19:50:53.554Z,9.91
2022-12-25T19:53:23.647Z,9.89
2022-12-25T19:55:52.792Z,9.79
2022-12-25T19:58:21.335Z,9.79
2022-12-25T20:01:00.066Z,9.85
2022-12-25T20:03:27.976Z,9.80
2022-12-25T20:05:55.613Z,9.80
2022-12-25T20:08:23.306Z,9.76
2022-12-25T20:10:51.218Z,9.79
2022-12-25T20:13:18.858Z,9.81
2022-12-25T20:15:46.747Z,9.81
2022-12-25T20:18:14.734Z,9.82
2022-12-25T20:20:43.046Z,9.83
2022-12-25T20:23:10.865Z,9.88
2022-12-25T20:25:42.007Z,9.86
2022-12-25T20:28:09.738Z,9.82
2022-12-25T20:30:40.505Z,9.77
2022-12-25T20:33:08.040Z,9.69
2022-12-25T20:35:35.752Z,9.66
2022-12-25T20:38:03.443Z,9.64
2022-12-25T20:40:32.483Z,9.62
2022-12-25T20:43:09.450Z,9.66
2022-12-25T20:45:42.807Z,9.68
2022-12-25T20:48:10.453Z,9.67
2022-12-25T20:50:37.755Z,9.67
2022-12-25T20:53:05.039Z,9.67
2022-12-25T20:55:32.760Z,9.66
2022-12-25T20:58:00.236Z,9.66
2022-12-25T21:00:27.760Z,9.70
2022-12-25T21:02:55.354Z,9.72
2022-12-25T21:05:22.767Z,9.73
2022-12-25T21:07:50.243Z,9.70
2022-12-25T21:10:17.767Z,9.65
2022-12-25T21:12:45.140Z,9.62
2022-12-25T21:15:15.712Z,9.58
2022-12-25T21:17:43.460Z,9.59
2022-12-25T21:20:11.567Z,9.60
2022-12-25T21:22:38.973Z,9.63
2022-12-25T21:25:06.672Z,9.63
2022-12-25T21:27:34.267Z,9.68
2022-12-25T21:30:15.313Z,9.69
2022-12-25T21:33:01.561Z,9.67
2022-12-25T21:35:29.081Z,9.68
2022-12-25T21:37:56.781Z,9.66
2022-12-25T21:40:24.260Z,9.68
2022-12-25T21:42:52.494Z,9.70
2022-12-25T21:45:20.279Z,9.69
2022-12-25T21:48:01.606Z,9.68
2022-12-25T21:50:48.901Z,9.69
2022-12-25T21:53:17.269Z,9.71
2022-12-25T21:55:59.633Z,9.72
2022-12-25T21:58:26.946Z,9.71
2022-12-25T22:00:54.454Z,9.74
2022-12-25T22:03:21.899Z,9.71
2022-12-25T22:06:07.712Z,9.74
2022-12-25T22:08:34.874Z,9.74
2022-12-25T22:11:05.800Z,9.73
2022-12-25T22:13:51.575Z,9.75
2022-12-25T22:16:37.506Z,9.76
2022-12-25T22:19:23.578Z,9.76
2022-12-25T22:21:51.813Z,9.78
2022-12-25T22:24:19.091Z,9.81
2022-12-25T22:26:46.743Z,9.81
2022-12-25T22:29:13.920Z,9.76
2022-12-25T22:31:46.747Z,9.82
2022-12-25T22:34:16.297Z,9.77
2022-12-25T22:36:43.586Z,9.82
2022-12-25T22:39:10.818Z,9.84
2022-12-25T22:41:38.027Z,9.79
2022-12-25T22:44:20.882Z,9.75
2022-12-25T22:46:48.740Z,9.74
2022-12-25T22:49:16.732Z,9.72
2022-12-25T22:51:44.648Z,9.73
2022-12-25T22:54:16.658Z,9.73
2022-12-25T22:56:45.511Z,9.69
2022-12-25T22:59:14.119Z,9.67
2022-12-25T23:01:41.933Z,9.67
2022-12-25T23:04:10.225Z,9.70
2022-12-25T23:06:37.873Z,9.59
2022-12-25T23:09:06.599Z,9.59
2022-12-25T23:11:35.325Z,9.61
2022-12-25T23:14:20.836Z,9.59
2022-12-25T23:16:48.141Z,9.59
2022-12-25T23:19:33.940Z,9.58
2022-12-25T23:22:20.839Z,9.59
2022-12-25T23:25:06.676Z,9.52
2022-12-25T23:27:34.612Z,9.45
2022-12-25T23:30:02.176Z,9.46
2022-12-25T23:32:29.609Z,9.36
2022-12-25T23:34:57.138Z,9.35
2022-12-25T23:37:24.612Z,9.39
2022-12-25T23:39:52.120Z,9.39
2022-12-25T23:42:19.609Z,9.37
2022-12-25T23:44:47.167Z,9.44
2022-12-25T23:47:14.790Z,9.43
2022-12-25T23:49:42.692Z,9.44
2022-12-25T23:52:12.952Z,9.44
2022-12-25T23:54:40.293Z,9.36
2022-12-25T23:57:07.857Z,9.30
2022-12-25T23:59:35.582Z,9.26
